Time;durP1;ratioP1;P1;durP2;ratioP2;P2;SDS_P1;SDS_P2;PMS_P1;PMS_P2;Temp;Humidity;BMP_temperature;BMP_pressure;BME280_temperature;BME280_humidity;BME280_pressure;Samples;Min_cycle;Max_cycle;Signal;HPM_P1;HPM_P2
2024/01/06 00:00:08;;;;;;;7.28;5.03;;;;;;;;;;5049081;28;20427;-83
2024/01/06 00:02:34;;;;;;;8.38;5.00;;;;;;;;;;5048530;28;20078;-83
2024/01/06 00:05:00;;;;;;;7.68;5.65;;;;;;;;;;5049160;28;20017;-83
2024/01/06 00:07:26;;;;;;;6.63;4.78;;;;;;;;;;5049019;28;20027;-82
2024/01/06 00:09:52;;;;;;;9.27;5.03;;;;;;;;;;5052683;28;20519;-82
2024/01/06 00:12:18;;;;;;;8.25;5.40;;;;;;;;;;5062233;28;20021;-82
2024/01/06 00:14:45;;;;;;;9.55;5.30;;;;;;;;;;5048834;28;20036;-83
2024/01/06 00:17:11;;;;;;;10.45;5.28;;;;;;;;;;5048899;28;20471;-83
2024/01/06 00:19:37;;;;;;;8.73;4.85;;;;;;;;;;5049061;28;20047;-83
2024/01/06 00:22:03;;;;;;;11.23;5.13;;;;;;;;;;5048455;28;20037;-83
2024/01/06 00:24:29;;;;;;;6.65;4.60;;;;;;;;;;5048853;28;20046;-83
2024/01/06 00:26:55;;;;;;;9.15;4.82;;;;;;;;;;5048656;28;20487;-83
2024/01/06 00:29:21;;;;;;;6.25;4.15;;;;;;;;;;5049522;28;20029;-83
2024/01/06 00:31:47;;;;;;;8.85;4.30;;;;;;;;;;5049210;28;20029;-83
2024/01/06 00:34:13;;;;;;;5.63;3.97;;;;;;;;;;5048760;28;20491;-83
2024/01/06 00:36:39;;;;;;;5.30;3.95;;;;;;;;;;5048730;28;20033;-82
2024/01/06 00:39:05;;;;;;;7.07;4.30;;;;;;;;;;5048646;28;20053;-82
2024/01/06 00:41:31;;;;;;;7.40;4.10;;;;;;;;;;5048705;28;20036;-82
2024/01/06 00:43:57;;;;;;;7.05;4.05;;;;;;;;;;5048051;28;20059;-82
2024/01/06 00:46:23;;;;;;;7.72;3.92;;;;;;;;;;5048613;28;20025;-83
2024/01/06 00:48:49;;;;;;;7.43;4.03;;;;;;;;;;5049429;28;20158;-82
2024/01/06 00:51:15;;;;;;;6.18;3.80;;;;;;;;;;5057048;28;20033;-82
2024/01/06 00:53:41;;;;;;;10.30;4.60;;;;;;;;;;5050632;28;20029;-82
2024/01/06 00:56:07;;;;;;;7.95;4.47;;;;;;;;;;5048556;28;20044;-82
2024/01/06 00:58:33;;;;;;;6.53;4.03;;;;;;;;;;5049252;28;20388;-83
2024/01/06 01:00:59;;;;;;;8.80;4.03;;;;;;;;;;5048238;28;20025;-83
2024/01/06 01:03:25;;;;;;;5.47;3.63;;;;;;;;;;5049378;28;20021;-83
2024/01/06 01:05:51;;;;;;;5.70;4.25;;;;;;;;;;5059150;28;20029;-83
2024/01/06 01:08:17;;;;;;;7.07;3.90;;;;;;;;;;5068527;28;20043;-83
2024/01/06 01:10:44;;;;;;;6.47;4.00;;;;;;;;;;5050436;28;20302;-83
2024/01/06 01:13:10;;;;;;;8.32;4.22;;;;;;;;;;5048004;28;20270;-83
2024/01/06 01:15:36;;;;;;;5.55;4.32;;;;;;;;;;5048285;28;20041;-83
2024/01/06 01:18:02;;;;;;;6.38;3.90;;;;;;;;;;5053511;28;20024;-83
2024/01/06 01:20:28;;;;;;;6.35;3.92;;;;;;;;;;5068295;28;20028;-83
2024/01/06 01:22:54;;;;;;;7.70;4.03;;;;;;;;;;5066645;28;20480;-83
2024/01/06 01:25:20;;;;;;;5.85;3.75;;;;;;;;;;5052387;28;20028;-83
2024/01/06 01:27:46;;;;;;;5.43;4.07;;;;;;;;;;5051977;28;20036;-82
2024/01/06 01:30:13;;;;;;;5.90;4.00;;;;;;;;;;5051832;28;20096;-83
2024/01/06 01:32:39;;;;;;;6.70;4.00;;;;;;;;;;5051900;28;20025;-83
2024/01/06 01:35:06;;;;;;;7.95;3.80;;;;;;;;;;5051427;28;20108;-83
2024/01/06 01:37:32;;;;;;;4.93;3.75;;;;;;;;;;5051737;28;20040;-83
2024/01/06 01:39:58;;;;;;;5.70;3.70;;;;;;;;;;5051669;28;20021;-82
2024/01/06 01:42:24;;;;;;;8.10;3.58;;;;;;;;;;5052115;28;20033;-83
2024/01/06 01:44:50;;;;;;;5.30;3.38;;;;;;;;;;5052406;28;20116;-82
2024/01/06 01:47:18;;;;;;;7.38;3.42;;;;;;;;;;5051649;28;20096;-83
2024/01/06 01:49:45;;;;;;;6.82;3.30;;;;;;;;;;5051238;28;20096;-83
2024/01/06 01:52:11;;;;;;;11.00;3.85;;;;;;;;;;5050701;28;20041;-83
2024/01/06 01:54:37;;;;;;;6.55;3.90;;;;;;;;;;5053383;28;20577;-82
2024/01/06 01:57:03;;;;;;;9.82;3.47;;;;;;;;;;5071396;28;20047;-82
2024/01/06 01:59:29;;;;;;;5.32;3.30;;;;;;;;;;5071290;28;20487;-83
2024/01/06 02:01:56;;;;;;;7.80;4.32;;;;;;;;;;5059183;28;20050;-83
2024/01/06 02:04:22;;;;;;;6.05;3.50;;;;;;;;;;5063427;28;20504;-82
2024/01/06 02:06:48;;;;;;;7.75;3.70;;;;;;;;;;5051204;28;20047;-82
2024/01/06 02:09:14;;;;;;;7.65;3.72;;;;;;;;;;5051101;28;20516;-83
2024/01/06 02:11:40;;;;;;;4.75;3.40;;;;;;;;;;5050290;28;20033;-83
2024/01/06 02:14:06;;;;;;;4.93;3.10;;;;;;;;;;5050830;28;20029;-83
2024/01/06 02:16:32;;;;;;;4.57;2.80;;;;;;;;;;5050920;28;20040;-83
2024/01/06 02:18:58;;;;;;;6.50;3.35;;;;;;;;;;5050996;28;20052;-82
2024/01/06 02:21:24;;;;;;;3.97;2.97;;;;;;;;;;5046582;28;20535;-82
2024/01/06 02:23:50;;;;;;;4.15;2.78;;;;;;;;;;5050561;28;20024;-82
2024/01/06 02:26:16;;;;;;;6.07;2.80;;;;;;;;;;5050745;28;20406;-82
2024/01/06 02:28:47;;;;;;;4.43;2.60;;;;;;;;;;5050833;28;20024;-83
2024/01/06 02:31:13;;;;;;;7.60;2.50;;;;;;;;;;5050305;28;20035;-83
2024/01/06 02:33:39;;;;;;;9.63;3.00;;;;;;;;;;5050243;28;20100;-82
2024/01/06 02:36:05;;;;;;;4.30;2.30;;;;;;;;;;5048374;28;20527;-82
2024/01/06 02:38:31;;;;;;;3.35;2.22;;;;;;;;;;5049222;28;20078;-83
2024/01/06 02:40:57;;;;;;;5.30;2.10;;;;;;;;;;5050747;28;20029;-83
2024/01/06 02:43:23;;;;;;;3.55;2.00;;;;;;;;;;5038649;28;20567;-82
2024/01/06 02:45:49;;;;;;;3.90;2.10;;;;;;;;;;5030556;28;20034;-82
2024/01/06 02:48:16;;;;;;;5.57;2.60;;;;;;;;;;5048939;28;20126;-83
2024/01/06 02:50:42;;;;;;;2.50;2.08;;;;;;;;;;5047804;28;20029;-82
2024/01/06 02:53:09;;;;;;;2.30;2.10;;;;;;;;;;5050156;28;20098;-83
2024/01/06 02:55:35;;;;;;;6.90;2.30;;;;;;;;;;5035955;28;20091;-83
2024/01/06 02:58:01;;;;;;;6.53;2.17;;;;;;;;;;5030354;28;20021;-83
2024/01/06 03:00:27;;;;;;;2.30;1.67;;;;;;;;;;5031116;28;20026;-83
2024/01/06 03:02:53;;;;;;;5.07;1.73;;;;;;;;;;5047845;28;20025;-83
2024/01/06 03:05:19;;;;;;;2.25;1.92;;;;;;;;;;5049923;28;20418;-83
2024/01/06 03:07:45;;;;;;;1.88;1.75;;;;;;;;;;5049974;28;20412;-82
2024/01/06 03:10:11;;;;;;;5.03;1.90;;;;;;;;;;5049105;28;20033;-83
2024/01/06 03:12:37;;;;;;;2.00;1.80;;;;;;;;;;5031682;28;20032;-83
2024/01/06 03:15:03;;;;;;;2.42;1.70;;;;;;;;;;5043301;28;20025;-83
2024/01/06 03:17:29;;;;;;;3.60;1.90;;;;;;;;;;5032129;28;20404;-86
2024/01/06 03:19:55;;;;;;;3.80;2.00;;;;;;;;;;5053882;28;20048;-83
2024/01/06 03:22:21;;;;;;;5.00;1.95;;;;;;;;;;5055606;28;20032;-82
2024/01/06 03:24:47;;;;;;;2.10;1.85;;;;;;;;;;5048005;28;20032;-83
2024/01/06 03:27:14;;;;;;;3.40;1.88;;;;;;;;;;5062134;28;20099;-84
2024/01/06 03:29:40;;;;;;;3.47;1.92;;;;;;;;;;5068626;28;20051;-83
2024/01/06 03:32:06;;;;;;;4.70;2.20;;;;;;;;;;5049626;28;20060;-83
2024/01/06 03:34:32;;;;;;;2.67;1.50;;;;;;;;;;5049403;28;20083;-83
2024/01/06 03:36:58;;;;;;;1.60;1.50;;;;;;;;;;5050079;28;20033;-82
2024/01/06 03:39:24;;;;;;;1.70;1.60;;;;;;;;;;5049316;28;20500;-83
2024/01/06 03:41:50;;;;;;;3.33;1.70;;;;;;;;;;5049153;28;20074;-83
2024/01/06 03:44:16;;;;;;;1.80;1.50;;;;;;;;;;5048728;28;20025;-82
2024/01/06 03:46:42;;;;;;;4.55;1.92;;;;;;;;;;5048963;28;20520;-83
2024/01/06 03:49:08;;;;;;;2.42;1.80;;;;;;;;;;5048959;28;20075;-82
2024/01/06 03:51:34;;;;;;;2.72;1.55;;;;;;;;;;5049191;28;20025;-82
2024/01/06 03:54:00;;;;;;;3.85;1.73;;;;;;;;;;5049787;28;20397;-82
2024/01/06 03:56:26;;;;;;;1.83;1.60;;;;;;;;;;5048724;28;20037;-82
2024/01/06 03:58:52;;;;;;;1.50;1.40;;;;;;;;;;5049168;28;20185;-82
2024/01/06 04:01:18;;;;;;;1.23;1.20;;;;;;;;;;5049145;28;20029;-82
2024/01/06 04:03:44;;;;;;;1.45;1.30;;;;;;;;;;5049089;28;20028;-82
2024/01/06 04:06:10;;;;;;;3.70;1.52;;;;;;;;;;5049162;28;20064;-82
2024/01/06 04:08:36;;;;;;;2.50;1.60;;;;;;;;;;5048924;28;20028;-83
2024/01/06 04:11:03;;;;;;;2.58;1.33;;;;;;;;;;5048888;28;20033;-83
2024/01/06 04:13:29;;;;;;;1.38;1.27;;;;;;;;;;5049611;28;20099;-82
2024/01/06 04:15:55;;;;;;;3.10;1.60;;;;;;;;;;5048568;28;20136;-83
2024/01/06 04:18:21;;;;;;;3.63;1.50;;;;;;;;;;5048840;28;20025;-82
2024/01/06 04:20:47;;;;;;;2.22;1.20;;;;;;;;;;5048762;28;20099;-83
2024/01/06 04:23:12;;;;;;;6.60;1.70;;;;;;;;;;5048271;28;20117;-83
2024/01/06 04:25:39;;;;;;;1.70;1.33;;;;;;;;;;5055959;28;20074;-82
2024/01/06 04:28:05;;;;;;;2.10;1.27;;;;;;;;;;5042277;28;20021;-83
2024/01/06 04:30:31;;;;;;;4.22;1.30;;;;;;;;;;5057107;28;20515;-83
2024/01/06 04:32:57;;;;;;;1.25;1.25;;;;;;;;;;5048424;28;20048;-82
2024/01/06 04:35:23;;;;;;;1.20;1.20;;;;;;;;;;5054903;28;20487;-84
2024/01/06 04:37:49;;;;;;;1.77;1.38;;;;;;;;;;5066898;28;20025;-84
2024/01/06 04:40:15;;;;;;;2.42;1.30;;;;;;;;;;5068766;28;20039;-83
2024/01/06 04:42:41;;;;;;;3.45;1.38;;;;;;;;;;5062781;28;20103;-83
2024/01/06 04:45:08;;;;;;;1.70;1.60;;;;;;;;;;5054347;28;20108;-83
2024/01/06 04:47:34;;;;;;;3.42;1.17;;;;;;;;;;5062903;28;20032;-84
2024/01/06 04:50:00;;;;;;;1.17;1.17;;;;;;;;;;5066655;28;20157;-84
2024/01/06 04:52:26;;;;;;;1.08;1.00;;;;;;;;;;5065491;28;20103;-83
2024/01/06 04:54:52;;;;;;;1.63;1.30;;;;;;;;;;5051117;28;20041;-84
2024/01/06 04:57:18;;;;;;;1.30;1.00;;;;;;;;;;5047926;28;20025;-84
2024/01/06 04:59:44;;;;;;;2.38;1.02;;;;;;;;;;5055883;28;20032;-85
2024/01/06 05:02:10;;;;;;;3.05;1.00;;;;;;;;;;5052799;28;20583;-85
2024/01/06 05:04:36;;;;;;;2.78;1.10;;;;;;;;;;5054657;28;20029;-84
2024/01/06 05:07:02;;;;;;;1.30;1.05;;;;;;;;;;5054661;28;20052;-84
2024/01/06 05:09:28;;;;;;;1.02;1.00;;;;;;;;;;5054638;28;20031;-85
2024/01/06 05:11:55;;;;;;;1.60;1.50;;;;;;;;;;5061452;28;20035;-84
2024/01/06 05:14:21;;;;;;;1.35;1.00;;;;;;;;;;5051806;28;20025;-85
2024/01/06 05:16:47;;;;;;;1.52;0.90;;;;;;;;;;5051699;28;20045;-84
2024/01/06 05:19:19;;;;;;;1.77;1.02;;;;;;;;;;5051868;28;20447;-85
2024/01/06 05:21:45;;;;;;;1.40;1.00;;;;;;;;;;5051829;28;20032;-85
2024/01/06 05:24:11;;;;;;;2.35;1.10;;;;;;;;;;5052320;28;20029;-85
2024/01/06 05:26:37;;;;;;;1.75;1.00;;;;;;;;;;5051616;28;20033;-85
2024/01/06 05:29:03;;;;;;;3.25;1.10;;;;;;;;;;5063988;28;20025;-85
2024/01/06 05:31:29;;;;;;;2.08;1.02;;;;;;;;;;5065735;28;20431;-85
2024/01/06 05:33:55;;;;;;;1.05;1.02;;;;;;;;;;5056530;28;20493;-84
2024/01/06 05:36:21;;;;;;;1.10;0.90;;;;;;;;;;5051032;28;20037;-85
2024/01/06 05:38:47;;;;;;;1.58;0.90;;;;;;;;;;5051539;28;20060;-85
2024/01/06 05:41:13;;;;;;;1.52;1.00;;;;;;;;;;5051494;28;20029;-85
2024/01/06 05:43:39;;;;;;;0.98;0.90;;;;;;;;;;5051579;28;20029;-84
2024/01/06 05:46:05;;;;;;;2.72;1.02;;;;;;;;;;5051930;28;20459;-84
2024/01/06 05:48:31;;;;;;;1.77;0.90;;;;;;;;;;5051517;28;20570;-84
2024/01/06 05:50:57;;;;;;;0.90;0.90;;;;;;;;;;5033331;28;20025;-84
2024/01/06 05:53:23;;;;;;;3.20;1.05;;;;;;;;;;5033325;28;20389;-84
2024/01/06 05:55:49;;;;;;;1.75;0.90;;;;;;;;;;5050791;28;20036;-85
2024/01/06 05:58:15;;;;;;;2.45;0.90;;;;;;;;;;5050165;28;20025;-84
2024/01/06 06:00:41;;;;;;;1.63;1.13;;;;;;;;;;5049506;28;20489;-83
2024/01/06 06:03:07;;;;;;;1.00;0.90;;;;;;;;;;5053702;28;20029;-83
2024/01/06 06:05:33;;;;;;;2.38;0.95;;;;;;;;;;5051178;28;20083;-83
2024/01/06 06:07:59;;;;;;;0.88;0.88;;;;;;;;;;5049798;28;20029;-83
2024/01/06 06:10:40;;;;;;;0.75;0.75;;;;;;;;;;5050146;28;20519;-83
2024/01/06 06:13:06;;;;;;;0.90;0.90;;;;;;;;;;5050674;28;20028;-82
2024/01/06 06:15:32;;;;;;;2.90;1.17;;;;;;;;;;5050929;28;20033;-84
2024/01/06 06:18:01;;;;;;;0.90;0.90;;;;;;;;;;5050930;28;20052;-83
2024/01/06 06:20:27;;;;;;;0.80;0.80;;;;;;;;;;5050600;28;20033;-83
2024/01/06 06:22:53;;;;;;;1.52;0.98;;;;;;;;;;5050307;28;20044;-83
2024/01/06 06:25:19;;;;;;;2.20;0.90;;;;;;;;;;5051094;28;20017;-82
2024/01/06 06:27:45;;;;;;;1.35;1.00;;;;;;;;;;5050542;28;20535;-83
2024/01/06 06:30:11;;;;;;;1.65;1.00;;;;;;;;;;5050331;28;20142;-82
2024/01/06 06:32:37;;;;;;;1.15;1.08;;;;;;;;;;5051619;28;20025;-83
2024/01/06 06:35:03;;;;;;;1.02;0.98;;;;;;;;;;5050301;28;20025;-82
2024/01/06 06:37:29;;;;;;;2.08;0.90;;;;;;;;;;5049727;28;20044;-83
2024/01/06 06:39:55;;;;;;;5.30;1.00;;;;;;;;;;5049903;28;20503;-83
2024/01/06 06:42:21;;;;;;;1.25;1.15;;;;;;;;;;5031945;28;20120;-84
2024/01/06 06:44:47;;;;;;;3.10;1.30;;;;;;;;;;5048786;28;20147;-84
2024/01/06 06:47:13;;;;;;;3.42;1.02;;;;;;;;;;5050464;28;20028;-84
2024/01/06 06:49:39;;;;;;;1.02;1.02;;;;;;;;;;5051388;28;20025;-83
2024/01/06 06:52:07;;;;;;;4.32;1.38;;;;;;;;;;5049674;28;20515;-83
2024/01/06 06:54:33;;;;;;;1.60;1.42;;;;;;;;;;5048836;28;20064;-83
2024/01/06 06:56:59;;;;;;;1.20;1.10;;;;;;;;;;5050001;28;20032;-83
2024/01/06 06:59:25;;;;;;;2.00;1.15;;;;;;;;;;5050100;28;20410;-82
2024/01/06 07:01:50;;;;;;;1.83;1.15;;;;;;;;;;5049177;28;20036;-82
2024/01/06 07:04:16;;;;;;;3.28;1.27;;;;;;;;;;5049445;28;20117;-82
2024/01/06 07:06:42;;;;;;;1.30;1.20;;;;;;;;;;5049139;28;20029;-83
2024/01/06 07:09:08;;;;;;;2.58;1.30;;;;;;;;;;5032599;28;20119;-85
2024/01/06 07:11:34;;;;;;;1.40;1.30;;;;;;;;;;5049724;28;20393;-83
2024/01/06 07:14:01;;;;;;;1.23;1.10;;;;;;;;;;5050052;28;20061;-83
2024/01/06 07:16:27;;;;;;;2.80;1.50;;;;;;;;;;5061357;28;20029;-83
2024/01/06 07:18:53;;;;;;;3.63;1.42;;;;;;;;;;5069864;28;20032;-83
2024/01/06 07:21:19;;;;;;;2.25;1.30;;;;;;;;;;5059907;28;20374;-84
2024/01/06 07:23:45;;;;;;;1.52;1.35;;;;;;;;;;5051286;28;20040;-83
2024/01/06 07:26:11;;;;;;;1.10;1.10;;;;;;;;;;5061510;28;20025;-82
2024/01/06 07:28:37;;;;;;;1.83;1.40;;;;;;;;;;5050427;28;20029;-83
2024/01/06 07:31:04;;;;;;;3.38;1.50;;;;;;;;;;5049163;28;20267;-82
2024/01/06 07:33:30;;;;;;;1.50;1.40;;;;;;;;;;5048959;28;20020;-82
2024/01/06 07:35:56;;;;;;;1.83;1.40;;;;;;;;;;5048750;28;20040;-81
2024/01/06 07:38:22;;;;;;;9.63;5.15;;;;;;;;;;5049510;28;20025;-81
2024/01/06 07:40:48;;;;;;;1.63;1.30;;;;;;;;;;5049276;28;20103;-81
2024/01/06 07:43:15;;;;;;;3.60;1.75;;;;;;;;;;5050009;28;20370;-81
2024/01/06 07:45:41;;;;;;;1.88;1.50;;;;;;;;;;5053908;28;20025;-81
2024/01/06 07:48:07;;;;;;;2.33;1.58;;;;;;;;;;5031637;28;20440;-81
2024/01/06 07:50:33;;;;;;;2.45;1.48;;;;;;;;;;5031395;28;20438;-81
2024/01/06 07:52:59;;;;;;;2.17;1.60;;;;;;;;;;5062417;28;20468;-81
2024/01/06 07:55:28;;;;;;;1.60;1.50;;;;;;;;;;5048125;28;20033;-81
2024/01/06 07:57:54;;;;;;;1.77;1.48;;;;;;;;;;5053466;28;20021;-81
2024/01/06 08:00:20;;;;;;;1.70;1.60;;;;;;;;;;5068391;28;20392;-81
2024/01/06 08:02:46;;;;;;;1.80;1.70;;;;;;;;;;5069204;28;20024;-85
2024/01/06 08:05:12;;;;;;;2.22;1.60;;;;;;;;;;5057401;28;20395;-83
2024/01/06 08:07:39;;;;;;;3.35;1.85;;;;;;;;;;5049119;28;20504;-83
2024/01/06 08:10:06;;;;;;;3.17;1.80;;;;;;;;;;5048544;28;20343;-82
2024/01/06 08:12:34;;;;;;;4.03;1.95;;;;;;;;;;5048971;28;20447;-82
2024/01/06 08:15:01;;;;;;;1.95;1.70;;;;;;;;;;5049144;28;20079;-81
2024/01/06 08:17:27;;;;;;;2.42;1.70;;;;;;;;;;5049208;28;20025;-81
2024/01/06 08:19:53;;;;;;;3.05;1.70;;;;;;;;;;5048339;28;20490;-83
2024/01/06 08:22:19;;;;;;;1.70;1.60;;;;;;;;;;5047987;28;20033;-82
2024/01/06 08:24:45;;;;;;;5.38;1.55;;;;;;;;;;5052990;28;20366;-89
2024/01/06 08:27:11;;;;;;;1.60;1.35;;;;;;;;;;5049637;28;20025;-83
2024/01/06 08:29:37;;;;;;;2.78;1.90;;;;;;;;;;5040394;28;20032;-83
2024/01/06 08:32:03;;;;;;;2.33;1.75;;;;;;;;;;5023500;28;20029;-84
2024/01/06 08:34:29;;;;;;;2.00;1.90;;;;;;;;;;5046378;28;20032;-81
2024/01/06 08:36:55;;;;;;;2.22;1.90;;;;;;;;;;5054311;28;20041;-83
2024/01/06 08:39:22;;;;;;;5.53;2.17;;;;;;;;;;5053452;28;20029;-82
2024/01/06 08:41:48;;;;;;;1.83;1.60;;;;;;;;;;5055646;28;20025;-80
2024/01/06 08:44:14;;;;;;;4.53;1.60;;;;;;;;;;5053055;28;20025;-81
2024/01/06 08:46:40;;;;;;;4.00;2.00;;;;;;;;;;5051335;28;20557;-81
2024/01/06 08:49:06;;;;;;;3.83;2.30;;;;;;;;;;5051125;28;20100;-81
2024/01/06 08:51:33;;;;;;;2.10;1.58;;;;;;;;;;5050880;28;20032;-82
2024/01/06 08:53:59;;;;;;;4.05;1.33;;;;;;;;;;5051417;28;20033;-81
2024/01/06 08:56:25;;;;;;;2.05;1.60;;;;;;;;;;5051133;28;20033;-81
2024/01/06 08:58:51;;;;;;;1.48;1.38;;;;;;;;;;5056181;28;20033;-81
2024/01/06 09:01:17;;;;;;;2.15;1.60;;;;;;;;;;5052143;28;20052;-81
2024/01/06 09:03:43;;;;;;;1.95;1.65;;;;;;;;;;5051851;28;20178;-81
2024/01/06 09:06:09;;;;;;;3.30;1.50;;;;;;;;;;5051284;28;20033;-81
2024/01/06 09:08:35;;;;;;;2.05;1.65;;;;;;;;;;5051772;28;20090;-82
2024/01/06 09:11:01;;;;;;;2.35;1.63;;;;;;;;;;5033809;28;20436;-81
2024/01/06 09:13:27;;;;;;;1.70;1.40;;;;;;;;;;5051204;28;20025;-81
2024/01/06 09:15:53;;;;;;;2.38;1.65;;;;;;;;;;5049794;28;20040;-83
2024/01/06 09:18:19;;;;;;;3.95;1.80;;;;;;;;;;5051096;28;20032;-82
2024/01/06 09:20:47;;;;;;;3.20;1.63;;;;;;;;;;5042635;28;20378;-83
2024/01/06 09:23:13;;;;;;;3.30;2.20;;;;;;;;;;5052188;28;20389;-82
2024/01/06 09:25:39;;;;;;;2.17;1.63;;;;;;;;;;5033397;28;20039;-83
2024/01/06 09:28:06;;;;;;;3.58;1.60;;;;;;;;;;5033556;28;20020;-83
2024/01/06 09:30:32;;;;;;;3.33;1.67;;;;;;;;;;5033328;28;20493;-82
2024/01/06 09:32:58;;;;;;;4.15;1.63;;;;;;;;;;5051351;28;20525;-82
2024/01/06 09:35:24;;;;;;;4.90;1.70;;;;;;;;;;5052735;28;20397;-82
2024/01/06 09:37:50;;;;;;;4.13;1.88;;;;;;;;;;5051234;28;20032;-83
2024/01/06 09:40:21;;;;;;;2.80;1.33;;;;;;;;;;5034427;28;20025;-84
2024/01/06 09:42:47;;;;;;;1.33;1.17;;;;;;;;;;5052719;28;20489;-83
2024/01/06 09:45:13;;;;;;;2.55;1.30;;;;;;;;;;5050356;28;20088;-82
2024/01/06 09:47:41;;;;;;;2.47;1.30;;;;;;;;;;5050597;28;20029;-84
2024/01/06 09:50:09;;;;;;;7.50;1.57;;;;;;;;;;5051565;28;20377;-85
2024/01/06 09:52:40;;;;;;;7.18;1.35;;;;;;;;;;5051584;28;20029;-86
2024/01/06 09:55:10;;;;;;;2.85;1.25;;;;;;;;;;5051485;28;20021;-84
2024/01/06 09:57:36;;;;;;;1.35;1.17;;;;;;;;;;5051046;28;20032;-85
2024/01/06 10:00:04;;;;;;;1.17;1.10;;;;;;;;;;5062556;28;20025;-90
2024/01/06 10:02:31;;;;;;;1.13;1.00;;;;;;;;;;5071517;28;20345;-84
2024/01/06 10:04:58;;;;;;;1.02;1.02;;;;;;;;;;5051613;28;20496;-83
2024/01/06 10:07:24;;;;;;;2.72;1.40;;;;;;;;;;5065121;28;20021;-84
2024/01/06 10:09:50;;;;;;;3.85;1.23;;;;;;;;;;5051889;28;20017;-85
2024/01/06 10:12:16;;;;;;;5.70;1.20;;;;;;;;;;5050218;28;20021;-84
2024/01/06 10:14:44;;;;;;;4.45;1.48;;;;;;;;;;5050757;28;20044;-83
2024/01/06 10:17:11;;;;;;;3.13;1.63;;;;;;;;;;5050995;28;20075;-84
2024/01/06 10:19:38;;;;;;;1.80;1.30;;;;;;;;;;5050451;28;20024;-84
2024/01/06 10:22:04;;;;;;;2.88;1.20;;;;;;;;;;5050432;28;20029;-84
2024/01/06 10:24:31;;;;;;;3.22;1.40;;;;;;;;;;5050840;28;20079;-89
2024/01/06 10:26:57;;;;;;;5.50;1.65;;;;;;;;;;5050858;28;20035;-85
2024/01/06 10:29:25;;;;;;;1.67;1.42;;;;;;;;;;5033062;28;20116;-82
2024/01/06 10:31:51;;;;;;;9.05;2.10;;;;;;;;;;5051313;28;20090;-82
2024/01/06 10:34:18;;;;;;;1.98;1.50;;;;;;;;;;5051033;28;20445;-83
2024/01/06 10:36:44;;;;;;;3.53;1.38;;;;;;;;;;5050696;28;20119;-83
2024/01/06 10:39:10;;;;;;;1.77;1.25;;;;;;;;;;5050464;28;20095;-83
2024/01/06 10:41:38;;;;;;;4.53;1.40;;;;;;;;;;5050573;28;20075;-83
2024/01/06 10:44:05;;;;;;;3.08;1.50;;;;;;;;;;5059792;28;20029;-82
2024/01/06 10:46:31;;;;;;;3.90;1.50;;;;;;;;;;5050523;28;20043;-82
2024/01/06 10:48:57;;;;;;;5.35;1.40;;;;;;;;;;5050633;28;20430;-84
2024/01/06 10:51:25;;;;;;;4.78;1.42;;;;;;;;;;5050915;28;20473;-82
2024/01/06 10:53:52;;;;;;;5.28;1.70;;;;;;;;;;5050853;28;20067;-82
2024/01/06 10:56:18;;;;;;;5.05;1.65;;;;;;;;;;5031268;28;20048;-82
2024/01/06 10:58:47;;;;;;;3.63;1.85;;;;;;;;;;5070180;28;20021;-83
2024/01/06 11:01:13;;;;;;;4.63;1.45;;;;;;;;;;5069901;28;20040;-82
2024/01/06 11:03:40;;;;;;;7.00;1.45;;;;;;;;;;5070154;28;20021;-83
2024/01/06 11:06:07;;;;;;;5.28;1.85;;;;;;;;;;5050299;28;20048;-82
2024/01/06 11:08:36;;;;;;;6.28;1.42;;;;;;;;;;5050169;28;20095;-82
2024/01/06 11:11:03;;;;;;;5.68;1.70;;;;;;;;;;5050974;28;20111;-82
2024/01/06 11:13:29;;;;;;;3.22;1.33;;;;;;;;;;5032068;28;20028;-82
2024/01/06 11:15:55;;;;;;;2.47;1.20;;;;;;;;;;5049888;28;20041;-82
2024/01/06 11:18:37;;;;;;;2.90;1.55;;;;;;;;;;5051737;28;20021;-83
2024/01/06 11:21:12;;;;;;;3.17;1.48;;;;;;;;;;5069707;28;20024;-82
2024/01/06 11:23:38;;;;;;;5.80;1.80;;;;;;;;;;5069450;28;20047;-82
2024/01/06 11:26:06;;;;;;;3.75;1.23;;;;;;;;;;5051894;28;20025;-82
2024/01/06 11:28:43;;;;;;;3.03;1.48;;;;;;;;;;5049718;28;20108;-83
2024/01/06 11:31:09;;;;;;;5.35;1.52;;;;;;;;;;5049042;28;20070;-84
2024/01/06 11:33:41;;;;;;;6.57;1.50;;;;;;;;;;5049067;28;20104;-82
2024/01/06 11:36:10;;;;;;;2.13;1.50;;;;;;;;;;5031366;28;20033;-82
2024/01/06 11:38:39;;;;;;;4.57;1.55;;;;;;;;;;5048997;28;20082;-82
2024/01/06 11:41:07;;;;;;;1.83;1.25;;;;;;;;;;5031722;28;20033;-83
2024/01/06 11:43:35;;;;;;;2.95;2.08;;;;;;;;;;5049417;28;20071;-82
2024/01/06 11:46:02;;;;;;;2.63;1.15;;;;;;;;;;5049041;28;20032;-82
2024/01/06 11:48:31;;;;;;;1.38;1.13;;;;;;;;;;5052898;28;20047;-82
2024/01/06 11:50:58;;;;;;;3.28;1.58;;;;;;;;;;5049673;28;20028;-82
2024/01/06 11:53:30;;;;;;;1.23;1.10;;;;;;;;;;5058880;28;20516;-82
2024/01/06 11:55:56;;;;;;;2.42;1.13;;;;;;;;;;5050033;28;20060;-83
2024/01/06 11:58:22;;;;;;;3.92;1.20;;;;;;;;;;5061205;28;20480;-82
2024/01/06 12:00:57;;;;;;;2.50;1.20;;;;;;;;;;5048783;28;20037;-82
2024/01/06 12:03:23;;;;;;;0.80;0.80;;;;;;;;;;5048693;28;20036;-82
2024/01/06 12:06:02;;;;;;;1.60;1.17;;;;;;;;;;5049095;28;20029;-83
2024/01/06 12:08:29;;;;;;;3.42;1.20;;;;;;;;;;5048627;28;20040;-82
2024/01/06 12:11:04;;;;;;;1.95;1.10;;;;;;;;;;5049833;28;20017;-83
2024/01/06 12:13:31;;;;;;;6.97;3.92;;;;;;;;;;5064398;28;20384;-83
2024/01/06 12:15:57;;;;;;;3.35;1.67;;;;;;;;;;5069754;28;20036;-82
2024/01/06 12:18:24;;;;;;;1.27;1.10;;;;;;;;;;5069340;28;20025;-82
2024/01/06 12:20:51;;;;;;;2.00;1.55;;;;;;;;;;5063649;28;20021;-83
2024/01/06 12:23:29;;;;;;;3.60;0.85;;;;;;;;;;5048654;28;20025;-81
2024/01/06 12:25:56;;;;;;;3.72;0.95;;;;;;;;;;5049834;28;20047;-83
2024/01/06 12:28:22;;;;;;;5.55;1.20;;;;;;;;;;5034411;28;20025;-83
2024/01/06 12:30:48;;;;;;;5.75;1.70;;;;;;;;;;5048416;28;20029;-81
2024/01/06 12:33:15;;;;;;;2.25;1.05;;;;;;;;;;5048158;28;20029;-83
2024/01/06 12:35:42;;;;;;;1.92;1.10;;;;;;;;;;5048358;28;20029;-82
2024/01/06 12:38:09;;;;;;;3.88;1.33;;;;;;;;;;5065066;28;20432;-82
2024/01/06 12:40:38;;;;;;;3.50;1.50;;;;;;;;;;5056668;28;20029;-82
2024/01/06 12:43:07;;;;;;;2.72;1.20;;;;;;;;;;5048452;28;20096;-83
2024/01/06 12:45:33;;;;;;;6.22;2.28;;;;;;;;;;5047997;28;20044;-83
2024/01/06 12:48:00;;;;;;;2.97;1.27;;;;;;;;;;5049114;28;20100;-83
2024/01/06 12:50:26;;;;;;;5.43;1.50;;;;;;;;;;5049064;28;20070;-83
2024/01/06 12:52:52;;;;;;;1.95;1.20;;;;;;;;;;5064450;28;20037;-83
2024/01/06 12:55:17;;;;;;;5.15;1.23;;;;;;;;;;5058783;28;20033;-82
2024/01/06 12:57:44;;;;;;;4.78;1.20;;;;;;;;;;5068592;28;20029;-81
2024/01/06 13:00:11;;;;;;;6.75;1.20;;;;;;;;;;5068565;28;20028;-82
2024/01/06 13:02:38;;;;;;;2.67;1.00;;;;;;;;;;5066389;28;20031;-82
2024/01/06 13:05:04;;;;;;;1.33;1.00;;;;;;;;;;5068288;28;20028;-82
2024/01/06 13:07:31;;;;;;;2.03;0.98;;;;;;;;;;5054662;28;20099;-82
2024/01/06 13:09:57;;;;;;;2.78;1.48;;;;;;;;;;5069339;28;20059;-81
2024/01/06 13:12:24;;;;;;;3.20;1.17;;;;;;;;;;5066472;28;20029;-82
2024/01/06 13:14:50;;;;;;;2.17;1.33;;;;;;;;;;5068241;28;20055;-82
2024/01/06 13:17:17;;;;;;;4.50;1.40;;;;;;;;;;5068506;28;20041;-82
2024/01/06 13:19:43;;;;;;;5.90;1.30;;;;;;;;;;5050757;28;20033;-81
2024/01/06 13:22:09;;;;;;;5.18;1.80;;;;;;;;;;5051913;28;20033;-82
2024/01/06 13:24:35;;;;;;;4.35;2.03;;;;;;;;;;5059137;28;20484;-83
2024/01/06 13:27:02;;;;;;;1.27;1.00;;;;;;;;;;5052638;28;20082;-80
2024/01/06 13:29:29;;;;;;;1.77;1.02;;;;;;;;;;5052230;28;20025;-83
2024/01/06 13:31:55;;;;;;;4.05;1.15;;;;;;;;;;5051684;28;20029;-82
2024/01/06 13:34:21;;;;;;;2.45;1.08;;;;;;;;;;5051742;28;20071;-82
2024/01/06 13:36:47;;;;;;;3.58;1.13;;;;;;;;;;5051606;28;20472;-83
2024/01/06 13:39:20;;;;;;;2.22;1.20;;;;;;;;;;5051581;28;20024;-81
2024/01/06 13:41:47;;;;;;;4.35;1.15;;;;;;;;;;5051125;28;20029;-84
2024/01/06 13:44:13;;;;;;;2.28;1.27;;;;;;;;;;5033855;28;20031;-83
2024/01/06 13:46:43;;;;;;;4.15;1.25;;;;;;;;;;5055742;28;20117;-81
2024/01/06 13:49:09;;;;;;;2.15;1.10;;;;;;;;;;5051568;28;20108;-83
2024/01/06 13:51:35;;;;;;;2.80;1.27;;;;;;;;;;5051534;28;20544;-82
2024/01/06 13:54:01;;;;;;;2.45;1.02;;;;;;;;;;5053068;28;20025;-82
2024/01/06 13:56:27;;;;;;;4.78;1.40;;;;;;;;;;5060817;28;20043;-82
2024/01/06 13:58:53;;;;;;;3.70;1.02;;;;;;;;;;5051212;28;20319;-82
2024/01/06 14:01:19;;;;;;;2.90;1.10;;;;;;;;;;5051483;28;20028;-82
2024/01/06 14:03:45;;;;;;;2.70;1.15;;;;;;;;;;5050094;28;20025;-82
2024/01/06 14:06:12;;;;;;;4.60;1.15;;;;;;;;;;5050916;28;20503;-82
2024/01/06 14:08:39;;;;;;;4.03;1.08;;;;;;;;;;5051340;28;20025;-83
2024/01/06 14:11:05;;;;;;;5.43;1.20;;;;;;;;;;5051303;28;20036;-82
2024/01/06 14:13:31;;;;;;;2.10;1.27;;;;;;;;;;5051989;28;20022;-82
2024/01/06 14:15:57;;;;;;;2.80;1.50;;;;;;;;;;5033197;28;20110;-82
2024/01/06 14:18:23;;;;;;;2.58;1.08;;;;;;;;;;5050764;28;20545;-82
2024/01/06 14:20:49;;;;;;;3.28;1.23;;;;;;;;;;5033211;28;20044;-82
2024/01/06 14:23:15;;;;;;;4.05;1.20;;;;;;;;;;5050651;28;20037;-82
2024/01/06 14:25:41;;;;;;;15.40;1.60;;;;;;;;;;5050601;28;20032;-82
2024/01/06 14:28:07;;;;;;;2.05;1.17;;;;;;;;;;5050494;28;20036;-82
2024/01/06 14:30:34;;;;;;;2.58;1.23;;;;;;;;;;5052409;28;20029;-82
2024/01/06 14:33:00;;;;;;;4.40;1.00;;;;;;;;;;5051006;28;20481;-81
2024/01/06 14:35:26;;;;;;;2.03;1.20;;;;;;;;;;5031854;28;20045;-81
2024/01/06 14:37:54;;;;;;;3.10;1.05;;;;;;;;;;5060174;28;20031;-81